<?xml version='1.0' encoding='UTF-8'?>
<gpx xmlns="http://www.topografix.com/GPX/1/1" creator="www.balnam.be" version="1.1" xmlns:xsi="http://www.w3.org/2001/XMLSchema-instance" xsi:schemaLocation="http://www.topografix.com/GPX/1/1 http://www.topografix.com/GPX/1/1/gpx.xsd">
<trk>
<name>lhvba10</name>
<cmt>v</cmt>
<desc>Battice Chemin n°10 </desc>
<link href="https://chemins.be/battice/chemin/10"/><trkseg>
<trkpt lat="50.634748" lon="5.821239"><time>2026-05-07T20:43:27Z</time></trkpt>
<trkpt lat="50.634829" lon="5.822715"><time>2026-05-07T20:53:27Z</time></trkpt>
<trkpt lat="50.634799" lon="5.822847"><time>2026-05-07T21:03:27Z</time></trkpt>
</trkseg></trk>
<trk>
<name>lhvba10</name>
<cmt>q</cmt>
<desc>Battice Chemin n°10 </desc>
<link href="https://chemins.be/battice/chemin/10"/><trkseg>
<trkpt lat="50.634799" lon="5.822847"><time>2026-05-07T21:03:27Z</time></trkpt>
<trkpt lat="50.634340" lon="5.824565"><time>2026-05-07T21:13:27Z</time></trkpt>
<trkpt lat="50.634671" lon="5.825166"><time>2026-05-07T21:23:27Z</time></trkpt>
<trkpt lat="50.634608" lon="5.826661"><time>2026-05-07T21:33:27Z</time></trkpt>
<trkpt lat="50.634068" lon="5.827660"><time>2026-05-07T21:43:27Z</time></trkpt>
</trkseg></trk>
<trk>
<name>lhvba10</name>
<cmt>r</cmt>
<desc>Battice Chemin n°10 </desc>
<link href="https://chemins.be/battice/chemin/10"/><trkseg>
<trkpt lat="50.634068" lon="5.827660"><time>2026-05-07T21:43:27Z</time></trkpt>
<trkpt lat="50.633904" lon="5.830432"><time>2026-05-07T21:53:27Z</time></trkpt>
<trkpt lat="50.631345" lon="5.835224"><time>2026-05-07T22:03:27Z</time></trkpt>
<trkpt lat="50.631200" lon="5.837442"><time>2026-05-07T22:13:27Z</time></trkpt>
<trkpt lat="50.630075" lon="5.839788"><time>2026-05-07T22:23:27Z</time></trkpt>
<trkpt lat="50.629793" lon="5.842105"><time>2026-05-07T22:33:27Z</time></trkpt>
<trkpt lat="50.630129" lon="5.844780"><time>2026-05-07T22:43:27Z</time></trkpt>
<trkpt lat="50.629929" lon="5.846354"><time>2026-05-07T22:53:27Z</time></trkpt>
</trkseg></trk>
<trk>
<name>lhvba10</name>
<cmt>s</cmt>
<desc>Battice Chemin n°10 </desc>
<link href="https://chemins.be/battice/chemin/10"/><trkseg>
<trkpt lat="50.629929" lon="5.846354"><time>2026-05-07T22:53:27Z</time></trkpt>
<trkpt lat="50.630178" lon="5.850079"><time>2026-05-07T23:03:27Z</time></trkpt>
</trkseg></trk>
<trk>
<name>lhvba10</name>
<cmt>r</cmt>
<desc>Battice Chemin n°10 </desc>
<link href="https://chemins.be/battice/chemin/10"/><trkseg>
<trkpt lat="50.630178" lon="5.850079"><time>2026-05-07T23:03:27Z</time></trkpt>
<trkpt lat="50.630205" lon="5.851384"><time>2026-05-07T23:13:27Z</time></trkpt>
<trkpt lat="50.629901" lon="5.851470"><time>2026-05-07T23:23:27Z</time></trkpt>
<trkpt lat="50.629824" lon="5.852099"><time>2026-05-07T23:33:27Z</time></trkpt>
<trkpt lat="50.629069" lon="5.853789"><time>2026-05-07T23:43:27Z</time></trkpt>
<trkpt lat="50.628801" lon="5.854271"><time>2026-05-07T23:53:27Z</time></trkpt>
</trkseg></trk>
<trk>
<name>lhvba10</name>
<cmt>q</cmt>
<desc>Battice Chemin n°10 </desc>
<link href="https://chemins.be/battice/chemin/10"/><trkseg>
<trkpt lat="50.628801" lon="5.854271"><time>2026-05-07T23:53:27Z</time></trkpt>
<trkpt lat="50.628577" lon="5.854695"><time>2026-05-08T00:03:27Z</time></trkpt>
<trkpt lat="50.627163" lon="5.853102"><time>2026-05-08T00:13:27Z</time></trkpt>
</trkseg>
</trk>
</gpx>